createdAt,value
2018-11-26T00:00:36.466Z,46.57
2018-11-26T00:03:09.497Z,46.33
2018-11-26T00:05:39.692Z,44.50
2018-11-26T00:08:27.538Z,47.60
2018-11-26T00:12:03.331Z,49.20
2018-11-26T00:14:32.564Z,48.43
2018-11-26T00:17:01.765Z,50.73
2018-11-26T00:19:31.015Z,48.47
2018-11-26T00:22:02.060Z,47.57
2018-11-26T00:24:31.294Z,49.70
2018-11-26T00:27:00.539Z,48.33
2018-11-26T00:29:29.700Z,47.83
2018-11-26T00:31:58.890Z,46.73
2018-11-26T00:34:28.225Z,47.87
2018-11-26T00:36:57.441Z,47.90
2018-11-26T00:39:26.636Z,50.37
2018-11-26T00:41:55.885Z,47.53
2018-11-26T00:44:25.055Z,49.00
2018-11-26T00:46:54.462Z,47.53
2018-11-26T00:49:23.711Z,46.93
2018-11-26T00:51:52.924Z,47.67
2018-11-26T00:54:22.138Z,50.27
2018-11-26T00:56:51.360Z,52.73
2018-11-26T00:59:20.626Z,50.97
2018-11-26T01:01:50.003Z,50.70
2018-11-26T01:04:19.225Z,51.47
2018-11-26T01:06:48.424Z,50.30
2018-11-26T01:09:17.637Z,48.63
2018-11-26T01:11:47.077Z,49.03
2018-11-26T01:14:16.360Z,51.23
2018-11-26T01:16:45.517Z,51.67
2018-11-26T01:19:14.672Z,52.73
2018-11-26T01:21:43.844Z,55.67
2018-11-26T01:24:13.080Z,54.70
2018-11-26T01:26:42.293Z,54.80
2018-11-26T01:29:11.552Z,56.43
2018-11-26T01:31:40.700Z,58.40
2018-11-26T01:34:09.908Z,57.40
2018-11-26T01:36:39.330Z,61.13
2018-11-26T01:39:09.575Z,61.00
2018-11-26T01:41:38.828Z,62.80
2018-11-26T01:44:08.032Z,62.60
2018-11-26T01:46:37.328Z,59.63
2018-11-26T01:49:06.620Z,60.87
2018-11-26T01:51:35.883Z,64.73
2018-11-26T01:54:05.105Z,62.27
2018-11-26T01:56:34.275Z,66.47
2018-11-26T01:59:03.472Z,64.93
2018-11-26T02:01:32.752Z,62.97
2018-11-26T02:04:02.071Z,63.73
2018-11-26T02:06:31.294Z,59.63
2018-11-26T02:09:00.477Z,59.70
2018-11-26T02:11:29.696Z,60.87
2018-11-26T02:13:58.939Z,59.67
2018-11-26T02:16:28.235Z,57.60
2018-11-26T02:18:57.882Z,59.77
2018-11-26T02:21:27.058Z,61.03
2018-11-26T02:23:56.284Z,55.67
2018-11-26T02:26:25.746Z,57.03
2018-11-26T02:28:55.112Z,56.47
2018-11-26T02:31:24.297Z,57.00
2018-11-26T02:33:53.499Z,55.33
2018-11-26T02:36:22.776Z,53.77
2018-11-26T02:38:52.052Z,53.93
2018-11-26T02:41:21.229Z,58.37
2018-11-26T02:43:50.547Z,53.10
2018-11-26T02:46:21.176Z,57.03
2018-11-26T02:48:50.464Z,53.67
2018-11-26T02:51:19.945Z,52.17
2018-11-26T02:53:49.142Z,56.57
2018-11-26T02:56:18.408Z,54.37
2018-11-26T02:58:47.626Z,58.10
2018-11-26T03:01:16.822Z,58.53
2018-11-26T03:03:46.104Z,56.37
2018-11-26T03:06:15.565Z,57.77
2018-11-26T03:08:44.781Z,50.57
2018-11-26T03:11:14.003Z,57.47
2018-11-26T03:13:43.189Z,51.80
2018-11-26T03:16:12.566Z,50.87
2018-11-26T03:18:41.797Z,48.33
2018-11-26T03:21:11.044Z,46.57
2018-11-26T03:23:40.294Z,50.93
2018-11-26T03:26:09.564Z,46.73
2018-11-26T03:28:39.364Z,46.83
2018-11-26T03:31:08.915Z,46.53
2018-11-26T03:33:38.205Z,45.23
2018-11-26T03:36:07.492Z,48.23
2018-11-26T03:38:58.070Z,49.67
2018-11-26T03:41:27.501Z,46.70
2018-11-26T03:43:56.741Z,48.97
2018-11-26T03:46:25.928Z,48.13
2018-11-26T03:50:24.308Z,49.30
2018-11-26T03:52:53.593Z,49.73
2018-11-26T03:55:22.771Z,46.10
2018-11-26T03:57:51.945Z,48.33
2018-11-26T04:00:21.445Z,48.60
2018-11-26T04:02:50.594Z,49.07
2018-11-26T04:05:19.902Z,51.37
2018-11-26T04:07:49.928Z,48.83
2018-11-26T04:10:19.130Z,51.67
2018-11-26T04:12:48.413Z,49.27
2018-11-26T04:15:17.645Z,51.20
2018-11-26T04:17:46.956Z,48.00
2018-11-26T04:20:16.252Z,48.30
2018-11-26T04:22:45.639Z,45.87
2018-11-26T04:25:17.319Z,47.20
2018-11-26T04:27:46.558Z,45.07
2018-11-26T04:30:15.814Z,46.33
2018-11-26T04:32:44.992Z,46.83
2018-11-26T04:35:14.339Z,45.30
2018-11-26T04:37:43.567Z,46.20
2018-11-26T04:40:12.798Z,45.83
2018-11-26T04:42:42.003Z,48.97
2018-11-26T04:45:11.325Z,48.27
2018-11-26T04:47:41.175Z,48.47
2018-11-26T04:50:11.548Z,48.00
2018-11-26T04:52:40.933Z,48.60
2018-11-26T04:55:11.325Z,46.50
2018-11-26T04:57:42.667Z,50.17
2018-11-26T05:00:11.703Z,46.13
2018-11-26T05:02:40.888Z,46.43
2018-11-26T05:05:11.440Z,45.43
2018-11-26T05:07:40.661Z,44.87
2018-11-26T05:10:11.578Z,46.80
2018-11-26T05:12:40.842Z,45.80
2018-11-26T05:15:12.198Z,46.67
2018-11-26T05:17:41.370Z,43.33
2018-11-26T05:20:14.473Z,44.77
2018-11-26T05:22:43.726Z,46.27
2018-11-26T05:25:13.090Z,44.53
2018-11-26T05:27:42.367Z,43.90
2018-11-26T05:30:12.637Z,45.13
2018-11-26T05:32:42.160Z,44.03
2018-11-26T05:35:16.028Z,43.90
2018-11-26T05:37:45.248Z,45.33
2018-11-26T05:40:15.285Z,43.73
2018-11-26T05:42:45.280Z,45.37
2018-11-26T05:45:15.706Z,47.90
2018-11-26T05:47:45.669Z,46.33
2018-11-26T05:50:15.962Z,46.97
2018-11-26T05:52:45.255Z,48.87
2018-11-26T05:55:17.218Z,52.27
2018-11-26T05:57:47.046Z,45.43
2018-11-26T06:00:26.354Z,48.87
2018-11-26T06:02:55.733Z,45.20
2018-11-26T06:05:25.064Z,46.20
2018-11-26T06:07:54.358Z,46.53
2018-11-26T06:10:23.788Z,50.90
2018-11-26T06:12:53.045Z,46.40
2018-11-26T06:15:22.312Z,47.93
2018-11-26T06:17:51.998Z,44.20
2018-11-26T06:20:21.166Z,45.33
2018-11-26T06:22:50.436Z,48.47
2018-11-26T06:25:20.844Z,49.23
2018-11-26T06:27:50.643Z,45.97
2018-11-26T06:30:20.480Z,51.23
2018-11-26T06:32:49.736Z,47.40
2018-11-26T06:35:21.951Z,46.13
2018-11-26T06:37:51.190Z,51.03
2018-11-26T06:40:21.151Z,46.27
2018-11-26T06:42:50.398Z,43.03
2018-11-26T06:45:22.025Z,45.60
2018-11-26T06:47:52.175Z,44.93
2018-11-26T06:50:22.050Z,45.67
2018-11-26T06:52:51.441Z,46.27
2018-11-26T06:55:21.739Z,45.53
2018-11-26T06:57:50.954Z,45.77
2018-11-26T07:00:21.074Z,45.70
2018-11-26T07:02:50.328Z,49.90
2018-11-26T07:05:21.671Z,47.47
2018-11-26T07:07:50.926Z,49.20
2018-11-26T07:10:21.639Z,49.33
2018-11-26T07:12:51.390Z,50.77
2018-11-26T07:15:21.968Z,47.43
2018-11-26T07:17:51.549Z,49.93
2018-11-26T07:20:22.379Z,49.20
2018-11-26T07:22:51.682Z,50.33
2018-11-26T07:25:21.874Z,51.33
2018-11-26T07:27:53.672Z,47.80
2018-11-26T07:30:25.214Z,49.20
2018-11-26T07:32:54.489Z,50.77
2018-11-26T07:35:23.892Z,52.00
2018-11-26T07:37:53.226Z,47.60
2018-11-26T07:40:31.516Z,49.83
2018-11-26T07:43:09.935Z,48.97
2018-11-26T07:45:45.963Z,47.97
2018-11-26T07:48:23.473Z,48.70
2018-11-26T07:50:53.090Z,52.63
2018-11-26T07:53:22.549Z,48.47
2018-11-26T07:55:52.022Z,52.13
2018-11-26T07:58:21.632Z,48.93
2018-11-26T08:00:51.257Z,47.60
2018-11-26T08:03:20.840Z,52.87
2018-11-26T08:05:50.346Z,49.00
2018-11-26T08:08:19.773Z,50.00
2018-11-26T08:10:49.249Z,50.70
2018-11-26T08:13:19.123Z,50.50
2018-11-26T08:15:48.522Z,53.30
2018-11-26T08:21:38.753Z,48.73
2018-11-26T08:24:08.154Z,48.90
2018-11-26T08:26:37.995Z,48.93
2018-11-26T08:29:10.785Z,47.30
2018-11-26T08:31:41.699Z,45.90
2018-11-26T08:34:11.316Z,47.70
2018-11-26T08:36:44.383Z,42.73
2018-11-26T08:39:19.485Z,46.40
2018-11-26T08:41:54.451Z,42.43
2018-11-26T08:44:30.474Z,43.33
2018-11-26T08:47:08.266Z,48.50
2018-11-26T08:49:42.979Z,42.60
2018-11-26T08:52:40.406Z,45.30
2018-11-26T08:55:12.721Z,42.50
2018-11-26T08:57:42.691Z,47.03
2018-11-26T09:00:14.649Z,42.00
2018-11-26T09:02:48.846Z,46.57
2018-11-26T09:05:24.233Z,44.30
2018-11-26T09:07:53.341Z,45.50
2018-11-26T09:10:30.741Z,44.80
2018-11-26T09:13:01.912Z,41.60
2018-11-26T09:15:33.803Z,41.60
2018-11-26T09:18:03.870Z,41.83
2018-11-26T09:20:34.845Z,41.33
2018-11-26T09:23:04.821Z,41.73
2018-11-26T09:25:35.598Z,42.30
2018-11-26T09:28:06.102Z,38.87
2018-11-26T09:30:42.622Z,40.40
2018-11-26T09:33:14.194Z,38.63
2018-11-26T09:35:44.942Z,39.73
2018-11-26T09:38:17.355Z,38.27
2018-11-26T09:40:49.021Z,33.83
2018-11-26T09:43:18.674Z,33.27
2018-11-26T09:45:52.124Z,32.90
2018-11-26T09:48:29.819Z,33.33
2018-11-26T09:51:14.122Z,36.47
2018-11-26T09:53:49.070Z,34.07
2018-11-26T09:56:25.151Z,37.93
2018-11-26T09:58:55.743Z,35.87
2018-11-26T10:01:28.937Z,37.23
2018-11-26T10:04:00.815Z,35.60
2018-11-26T10:06:31.362Z,32.70
2018-11-26T10:09:00.895Z,37.77
2018-11-26T10:11:36.658Z,35.17
2018-11-26T10:14:08.904Z,31.43
2018-11-26T10:16:40.722Z,29.17
2018-11-26T10:19:11.909Z,31.57
2018-11-26T10:21:42.345Z,30.60
2018-11-26T10:24:13.009Z,29.03
2018-11-26T10:26:42.888Z,30.53
2018-11-26T10:29:12.924Z,31.80
2018-11-26T10:31:44.488Z,28.60
2018-11-26T10:34:14.511Z,29.47
2018-11-26T10:36:44.832Z,30.23
2018-11-26T10:39:14.327Z,27.60
2018-11-26T10:41:46.040Z,28.10
2018-11-26T10:44:15.600Z,27.77
2018-11-26T10:46:45.139Z,26.87
2018-11-26T10:49:18.284Z,28.20
2018-11-26T10:52:01.171Z,26.73
2018-11-26T10:54:31.712Z,26.57
2018-11-26T10:57:01.183Z,27.33
2018-11-26T10:59:30.543Z,27.50
2018-11-26T11:02:07.117Z,28.30
2018-11-26T11:04:38.277Z,26.27
2018-11-26T11:07:09.059Z,26.37
2018-11-26T11:09:38.595Z,28.63
2018-11-26T11:12:10.423Z,26.47
2018-11-26T11:14:40.670Z,27.43
2018-11-26T11:17:10.687Z,30.53
2018-11-26T11:19:41.932Z,29.50
2018-11-26T11:22:11.652Z,27.47
2018-11-26T11:24:41.434Z,26.37
2018-11-26T11:27:11.139Z,26.40
2018-11-26T11:29:40.790Z,27.67
2018-11-26T11:32:10.314Z,25.07
2018-11-26T11:34:39.823Z,27.47
2018-11-26T11:37:09.604Z,28.07
2018-11-26T11:39:39.033Z,27.70
2018-11-26T11:42:08.721Z,27.10
2018-11-26T11:44:38.272Z,26.97
2018-11-26T11:47:07.734Z,27.87
2018-11-26T11:49:37.283Z,29.17
2018-11-26T11:52:06.679Z,29.27
2018-11-26T11:54:36.198Z,29.77
2018-11-26T11:57:05.937Z,29.00
2018-11-26T11:59:35.413Z,32.67
2018-11-26T12:02:04.916Z,28.37
2018-11-26T12:04:35.483Z,29.97
2018-11-26T12:07:05.019Z,31.27
2018-11-26T12:09:34.466Z,28.60
2018-11-26T12:15:17.006Z,32.57
2018-11-26T12:17:48.090Z,31.00
2018-11-26T12:20:18.167Z,34.13
2018-11-26T12:22:48.650Z,32.77
2018-11-26T12:25:19.282Z,34.07
2018-11-26T12:27:50.064Z,35.20
2018-11-26T12:30:34.887Z,33.57
2018-11-26T12:33:26.587Z,34.97
2018-11-26T12:35:59.225Z,35.30
2018-11-26T12:38:36.386Z,31.73
2018-11-26T12:41:16.437Z,34.00
2018-11-26T12:43:49.387Z,33.73
2018-11-26T12:46:19.309Z,33.17
2018-11-26T12:48:52.727Z,34.23
2018-11-26T12:51:22.527Z,35.60
2018-11-26T12:56:48.652Z,38.40
2018-11-26T12:59:18.832Z,33.47
2018-11-26T13:01:50.126Z,36.90
2018-11-26T13:04:20.684Z,36.53
2018-11-26T13:06:54.423Z,37.10
2018-11-26T13:09:24.469Z,34.10
2018-11-26T13:11:58.053Z,39.37
2018-11-26T13:14:40.216Z,37.87
2018-11-26T13:17:10.314Z,40.37
2018-11-26T13:19:42.228Z,39.90
2018-11-26T13:22:13.499Z,39.03
2018-11-26T13:24:43.358Z,40.43
2018-11-26T13:27:12.830Z,40.83
2018-11-26T13:29:42.410Z,40.80
2018-11-26T13:32:11.996Z,39.77
2018-11-26T13:37:51.304Z,41.23
2018-11-26T13:40:21.231Z,43.27
2018-11-26T13:42:51.605Z,43.63
2018-11-26T13:45:35.247Z,40.97
2018-11-26T13:48:09.452Z,31.90
2018-11-26T13:50:43.653Z,33.67
2018-11-26T13:53:16.801Z,30.33
2018-11-26T13:55:49.043Z,29.37
2018-11-26T13:58:22.123Z,26.30
2018-11-26T14:00:53.541Z,27.43
2018-11-26T14:03:23.520Z,28.87
2018-11-26T14:05:54.946Z,28.67
2018-11-26T14:08:25.726Z,25.33
2018-11-26T14:10:57.031Z,27.33
2018-11-26T14:13:27.650Z,23.60
2018-11-26T14:15:59.060Z,25.23
2018-11-26T14:24:33.189Z,25.93
2018-11-26T14:27:08.428Z,25.03
2018-11-26T14:29:39.057Z,26.20
2018-11-26T14:32:09.836Z,24.73
2018-11-26T14:34:39.962Z,27.20
2018-11-26T14:37:13.237Z,27.60
2018-11-26T14:39:45.509Z,26.97
2018-11-26T14:45:15.137Z,24.73
2018-11-26T14:47:47.394Z,26.57
2018-11-26T14:50:17.692Z,26.90
2018-11-26T14:52:48.169Z,28.13
2018-11-26T14:55:28.220Z,28.67
2018-11-26T14:58:09.816Z,30.00
2018-11-26T15:00:43.307Z,28.87
2018-11-26T15:06:10.757Z,30.47
2018-11-26T15:08:41.565Z,29.20
2018-11-26T15:11:11.501Z,29.00
2018-11-26T15:13:41.444Z,27.90
2018-11-26T15:16:11.084Z,29.77
2018-11-26T15:18:41.823Z,27.50
2018-11-26T15:21:11.810Z,28.00
2018-11-26T15:32:47.619Z,28.43
2018-11-26T15:35:20.914Z,27.70
2018-11-26T15:37:50.811Z,28.40
2018-11-26T15:40:21.365Z,28.13
2018-11-26T15:42:53.194Z,27.20
2018-11-26T15:45:29.185Z,28.83
2018-11-26T15:48:01.038Z,27.13
2018-11-26T15:50:35.303Z,26.97
2018-11-26T15:53:09.958Z,27.37
2018-11-26T15:55:39.890Z,27.87
2018-11-26T15:58:10.971Z,27.70
2018-11-26T16:00:41.887Z,28.10
2018-11-26T16:03:13.047Z,27.30
2018-11-26T16:05:42.827Z,27.70
2018-11-26T16:08:23.153Z,28.60
2018-11-26T16:10:54.694Z,30.63
2018-11-26T16:13:27.691Z,29.60
2018-11-26T16:16:01.379Z,26.67
2018-11-26T16:18:32.178Z,29.43
2018-11-26T16:21:03.263Z,28.47
2018-11-26T16:23:33.486Z,27.73
2018-11-26T16:26:04.299Z,29.00
2018-11-26T16:28:34.509Z,28.73
2018-11-26T16:31:05.299Z,28.70
2018-11-26T16:36:36.314Z,29.10
2018-11-26T16:39:10.026Z,28.07
2018-11-26T16:41:39.965Z,27.07
2018-11-26T16:44:09.931Z,28.40
2018-11-26T16:46:42.106Z,30.40
2018-11-26T16:49:12.763Z,30.73
2018-11-26T16:51:48.092Z,27.90
2018-11-26T16:54:23.764Z,29.87
2018-11-26T16:59:53.877Z,30.13
2018-11-26T17:02:23.531Z,31.20
2018-11-26T17:04:54.449Z,30.47
2018-11-26T17:07:33.546Z,31.77
2018-11-26T17:10:15.916Z,31.77
2018-11-26T17:12:46.119Z,36.57
2018-11-26T17:15:17.319Z,30.97
2018-11-26T17:17:47.728Z,30.93
2018-11-26T17:20:26.054Z,34.20
2018-11-26T17:22:56.529Z,32.07
2018-11-26T17:25:26.046Z,32.40
2018-11-26T17:27:55.664Z,30.97
2018-11-26T17:30:26.472Z,27.87
2018-11-26T17:32:58.674Z,30.67
2018-11-26T17:35:29.082Z,32.53
2018-11-26T17:37:58.521Z,32.10
2018-11-26T17:40:36.218Z,27.27
2018-11-26T17:43:10.425Z,28.47
2018-11-26T17:47:04.513Z,29.60
2018-11-26T17:49:36.133Z,28.83
2018-11-26T17:52:06.918Z,29.33
2018-11-26T17:54:37.871Z,29.50
2018-11-26T17:57:09.521Z,28.70
2018-11-26T17:59:41.622Z,30.53
2018-11-26T18:02:11.004Z,30.10
2018-11-26T18:04:40.677Z,29.63
2018-11-26T18:07:10.993Z,30.13
2018-11-26T18:09:40.807Z,28.97
2018-11-26T18:12:10.287Z,27.77
2018-11-26T18:14:39.896Z,29.40
2018-11-26T18:17:10.867Z,28.37
2018-11-26T18:19:41.395Z,27.63
2018-11-26T18:22:18.113Z,26.97
2018-11-26T18:24:47.769Z,26.60
2018-11-26T18:27:18.464Z,25.70
2018-11-26T18:29:48.868Z,26.00
2018-11-26T18:32:19.154Z,26.33
2018-11-26T18:34:49.740Z,26.77
2018-11-26T18:37:19.082Z,25.53
2018-11-26T18:39:49.104Z,25.00
2018-11-26T18:42:20.582Z,26.20
2018-11-26T18:44:50.124Z,24.23
2018-11-26T18:47:21.517Z,24.47
2018-11-26T18:49:50.914Z,26.37
2018-11-26T18:52:20.447Z,26.53
2018-11-26T18:54:51.272Z,26.40
2018-11-26T18:57:20.815Z,26.20
2018-11-26T18:59:53.020Z,25.33
2018-11-26T19:02:23.577Z,27.10
2018-11-26T19:04:54.202Z,26.10
2018-11-26T19:07:24.428Z,28.83
2018-11-26T19:09:54.507Z,29.30
2018-11-26T19:12:23.915Z,27.33
2018-11-26T19:14:54.567Z,26.70
2018-11-26T19:17:23.928Z,26.43
2018-11-26T19:19:53.202Z,27.40
2018-11-26T19:22:22.591Z,28.20
2018-11-26T19:24:52.308Z,27.60
2018-11-26T19:27:22.460Z,27.80
2018-11-26T19:29:53.892Z,28.77
2018-11-26T19:32:24.420Z,28.43
2018-11-26T19:34:55.377Z,26.33
2018-11-26T19:37:24.855Z,27.60
2018-11-26T19:39:54.384Z,28.13
2018-11-26T19:42:31.011Z,27.40
2018-11-26T19:45:00.629Z,26.77
2018-11-26T19:47:30.241Z,26.87
2018-11-26T19:50:02.327Z,26.70
2018-11-26T19:52:29.080Z,27.80
2018-11-26T19:54:58.436Z,27.70
2018-11-26T19:57:27.805Z,29.20
2018-11-26T19:59:58.841Z,29.70
2018-11-26T20:02:28.230Z,29.40
2018-11-26T20:05:01.338Z,31.63
2018-11-26T20:07:30.938Z,31.00
2018-11-26T20:10:00.792Z,32.47
2018-11-26T20:12:30.159Z,29.97
2018-11-26T20:14:59.798Z,30.83
2018-11-26T20:17:30.662Z,30.17
2018-11-26T20:20:00.241Z,27.77
2018-11-26T20:22:29.872Z,30.03
2018-11-26T20:25:00.388Z,27.33
2018-11-26T20:27:29.787Z,30.33
2018-11-26T20:29:59.451Z,28.53
2018-11-26T20:32:30.320Z,27.83
2018-11-26T20:34:58.507Z,30.30
2018-11-26T20:37:29.394Z,28.93
2018-11-26T20:40:09.655Z,28.40
2018-11-26T20:42:42.950Z,29.00
2018-11-26T20:45:15.802Z,28.13
2018-11-26T20:47:48.076Z,27.03
2018-11-26T20:50:19.250Z,28.03
2018-11-26T20:52:50.147Z,27.53
2018-11-26T20:55:23.958Z,27.90
2018-11-26T20:57:54.724Z,26.50
2018-11-26T21:00:27.577Z,27.50
2018-11-26T21:03:04.251Z,30.70
2018-11-26T21:05:33.886Z,27.60
2018-11-26T21:08:03.406Z,29.63
2018-11-26T21:10:32.865Z,30.73
2018-11-26T21:13:02.502Z,29.40
2018-11-26T21:15:33.316Z,29.33
2018-11-26T21:18:07.361Z,30.80
2018-11-26T21:20:38.709Z,30.97
2018-11-26T21:23:11.616Z,30.43
2018-11-26T21:25:41.412Z,30.87
2018-11-26T21:28:13.433Z,32.63
2018-11-26T21:30:43.258Z,32.13
2018-11-26T21:33:13.767Z,32.23
2018-11-26T21:35:43.311Z,31.87
2018-11-26T21:38:13.214Z,35.87
2018-11-26T21:40:47.268Z,34.83
2018-11-26T21:43:18.267Z,33.40
2018-11-26T21:45:58.606Z,35.83
2018-11-26T21:48:28.945Z,33.53
2018-11-26T21:50:58.878Z,36.87
2018-11-26T21:53:28.777Z,34.63
2018-11-26T21:55:58.087Z,35.43
2018-11-26T21:58:35.592Z,33.57
2018-11-26T22:01:08.564Z,33.63
2018-11-26T22:03:39.178Z,34.93
2018-11-26T22:06:08.595Z,34.13
2018-11-26T22:08:38.093Z,35.70
2018-11-26T22:11:09.178Z,35.27
2018-11-26T22:13:38.860Z,34.70
2018-11-26T22:16:08.280Z,31.73
2018-11-26T22:18:37.922Z,32.97
2018-11-26T22:21:07.464Z,32.37
2018-11-26T22:23:36.878Z,31.07
2018-11-26T22:26:06.445Z,32.67
2018-11-26T22:28:36.437Z,33.50
2018-11-26T22:31:09.009Z,30.50
2018-11-26T22:33:38.521Z,32.83
2018-11-26T22:36:08.884Z,33.97
2018-11-26T22:38:38.907Z,29.07
2018-11-26T22:41:08.252Z,29.53
2018-11-26T22:43:39.149Z,29.10
2018-11-26T22:46:09.337Z,27.27
2018-11-26T22:48:38.742Z,26.23
2018-11-26T22:51:08.200Z,27.33
2018-11-26T22:53:37.574Z,27.47
2018-11-26T22:56:08.000Z,25.33
2018-11-26T22:58:37.321Z,25.90
2018-11-26T23:01:08.033Z,25.03
2018-11-26T23:03:37.481Z,23.80
2018-11-26T23:06:08.171Z,23.43
2018-11-26T23:08:37.567Z,21.50
2018-11-26T23:11:07.586Z,24.00
2018-11-26T23:13:36.919Z,23.47
2018-11-26T23:16:07.418Z,23.50
2018-11-26T23:18:36.971Z,23.87
2018-11-26T23:21:06.403Z,23.30
2018-11-26T23:23:35.874Z,26.60
2018-11-26T23:26:05.496Z,26.77
2018-11-26T23:28:35.554Z,28.43
2018-11-26T23:31:05.608Z,31.37
2018-11-26T23:33:39.873Z,28.63
2018-11-26T23:36:09.229Z,30.33
2018-11-26T23:38:39.524Z,30.33
2018-11-26T23:41:09.234Z,28.23
2018-11-26T23:43:38.691Z,25.13
2018-11-26T23:46:09.772Z,30.43
2018-11-26T23:48:40.586Z,26.97
2018-11-26T23:51:10.431Z,24.97
2018-11-26T23:53:39.797Z,25.27
2018-11-26T23:56:09.253Z,25.67
2018-11-26T23:58:39.402Z,25.10
